Time;durP1;ratioP1;P1;durP2;ratioP2;P2;SDS_P1;SDS_P2;PMS_P1;PMS_P2;Temp;Humidity;BMP_temperature;BMP_pressure;BME280_temperature;BME280_humidity;BME280_pressure;Samples;Min_cycle;Max_cycle;Signal;HPM_P1;HPM_P2
2023/08/24 00:01:16;;;;;;;4.03;3.73;;;24.80;99.90;;;;;;5058166;28;20486;-60
2023/08/24 00:03:45;;;;;;;3.60;3.30;;;24.80;99.90;;;;;;5065364;28;20528;-65
2023/08/24 00:06:12;;;;;;;4.03;3.73;;;24.70;99.90;;;;;;5064912;28;20895;-53
2023/08/24 00:08:39;;;;;;;3.33;3.03;;;24.80;99.90;;;;;;5066606;28;20978;-60
2023/08/24 00:11:07;;;;;;;3.47;3.17;;;24.70;99.90;;;;;;5067294;28;20464;-59
2023/08/24 00:13:34;;;;;;;3.83;3.53;;;24.70;99.90;;;;;;5068251;28;20526;-64
2023/08/24 00:16:01;;;;;;;4.67;4.17;;;24.80;99.90;;;;;;5061456;28;20470;-59
2023/08/24 00:18:29;;;;;;;5.77;3.50;;;24.80;99.90;;;;;;5063711;28;20468;-57
2023/08/24 00:20:56;;;;;;;3.70;3.40;;;24.70;99.90;;;;;;5060596;28;20471;-57
2023/08/24 00:23:23;;;;;;;4.60;4.13;;;24.70;99.90;;;;;;5062238;28;20467;-63
2023/08/24 00:25:49;;;;;;;3.83;3.53;;;24.70;99.90;;;;;;5064800;28;20468;-62
2023/08/24 00:28:16;;;;;;;3.80;3.50;;;24.70;99.90;;;;;;5058161;28;20460;-56
2023/08/24 00:30:43;;;;;;;4.07;3.70;;;24.70;99.90;;;;;;5063377;28;20474;-62
2023/08/24 00:33:10;;;;;;;4.10;3.70;;;24.70;99.90;;;;;;5062241;28;20475;-61
2023/08/24 00:35:38;;;;;;;3.43;3.13;;;24.70;99.90;;;;;;5063668;28;20480;-61
2023/08/24 00:38:04;;;;;;;3.80;3.50;;;24.70;99.90;;;;;;5060774;28;22192;-62
2023/08/24 00:40:32;;;;;;;3.77;3.20;;;24.70;99.90;;;;;;5060708;28;20475;-58
2023/08/24 00:42:59;;;;;;;3.33;3.13;;;24.80;99.90;;;;;;5063335;28;20995;-60
2023/08/24 00:45:26;;;;;;;5.63;3.60;;;24.80;99.90;;;;;;5059912;28;21014;-61
2023/08/24 00:47:53;;;;;;;4.00;3.70;;;24.70;99.90;;;;;;5064814;28;20468;-60
2023/08/24 00:50:21;;;;;;;3.00;2.80;;;24.80;99.90;;;;;;5064315;28;21051;-61
2023/08/24 00:52:50;;;;;;;3.17;2.97;;;24.70;99.90;;;;;;5067054;28;20460;-61
2023/08/24 00:55:18;;;;;;;4.77;3.90;;;24.70;99.90;;;;;;5066440;28;21009;-61
2023/08/24 00:57:45;;;;;;;3.80;3.50;;;24.80;99.90;;;;;;5066609;28;20456;-62
2023/08/24 01:00:15;;;;;;;3.90;3.60;;;24.70;99.90;;;;;;5064282;28;20511;-61
2023/08/24 01:02:42;;;;;;;4.30;3.90;;;24.70;99.90;;;;;;5085347;22;20498;-56
2023/08/24 01:05:09;;;;;;;4.20;3.90;;;24.70;99.90;;;;;;5084238;28;20835;-55
2023/08/24 01:07:39;;;;;;;4.33;4.03;;;24.70;99.90;;;;;;5081247;28;20474;-54
2023/08/24 01:10:10;;;;;;;4.73;4.43;;;24.70;99.90;;;;;;5083845;28;20465;-54
2023/08/24 01:12:47;;;;;;;4.47;4.10;;;24.70;99.90;;;;;;5081491;28;20453;-55
2023/08/24 01:15:18;;;;;;;4.63;4.23;;;24.70;99.90;;;;;;5081435;28;21079;-55
2023/08/24 01:17:47;;;;;;;4.20;3.90;;;24.70;99.90;;;;;;5082010;28;20459;-56
2023/08/24 01:20:15;;;;;;;4.17;3.87;;;24.70;99.90;;;;;;5085123;28;21010;-55
2023/08/24 01:22:48;;;;;;;4.33;4.03;;;24.70;99.90;;;;;;5080318;28;20463;-55
2023/08/24 01:25:23;;;;;;;4.17;3.87;;;24.70;99.90;;;;;;5085842;28;20459;-53
2023/08/24 01:27:52;;;;;;;5.17;4.87;;;24.70;99.90;;;;;;5086938;28;20839;-56
2023/08/24 01:30:19;;;;;;;4.17;3.87;;;24.70;99.90;;;;;;5081522;28;20451;-56
2023/08/24 01:32:46;;;;;;;5.23;4.77;;;24.70;99.90;;;;;;5086325;28;20469;-56
2023/08/24 01:35:13;;;;;;;3.60;3.30;;;24.70;99.90;;;;;;5086465;28;20494;-57
2023/08/24 01:37:40;;;;;;;4.73;4.33;;;24.70;99.90;;;;;;5085145;28;20465;-56
2023/08/24 01:40:12;;;;;;;4.43;4.03;;;24.70;99.90;;;;;;5087845;28;20462;-55
2023/08/24 01:42:49;;;;;;;3.60;3.27;;;24.70;99.90;;;;;;5084722;28;20456;-57
2023/08/24 01:45:19;;;;;;;4.17;3.87;;;24.70;99.90;;;;;;5086065;28;20461;-55
2023/08/24 01:47:49;;;;;;;3.27;3.07;;;24.70;99.90;;;;;;5086091;28;20471;-54
2023/08/24 01:50:16;;;;;;;3.77;3.40;;;24.70;99.90;;;;;;5086611;28;20456;-55
2023/08/24 01:52:43;;;;;;;3.57;3.27;;;24.70;99.90;;;;;;5085035;28;21004;-54
2023/08/24 01:55:11;;;;;;;4.00;3.70;;;24.70;99.90;;;;;;5085775;27;20567;-54
2023/08/24 01:57:38;;;;;;;4.37;4.07;;;24.70;99.90;;;;;;5084930;27;20451;-57
2023/08/24 02:00:07;;;;;;;3.47;3.17;;;24.70;99.90;;;;;;5083987;28;20468;-55
2023/08/24 02:02:36;;;;;;;4.00;3.70;;;24.70;99.90;;;;;;5079989;28;20521;-55
2023/08/24 02:05:03;;;;;;;3.90;3.60;;;24.70;99.90;;;;;;5082834;28;20468;-58
2023/08/24 02:07:30;;;;;;;4.43;3.93;;;24.70;99.90;;;;;;5081404;28;20870;-58
2023/08/24 02:09:57;;;;;;;3.87;3.57;;;24.70;99.90;;;;;;5082392;28;20460;-58
2023/08/24 02:12:24;;;;;;;3.63;3.43;;;24.70;99.90;;;;;;5083211;28;20682;-58
2023/08/24 02:14:50;;;;;;;4.07;3.77;;;24.70;99.90;;;;;;5083685;28;20517;-57
2023/08/24 02:17:17;;;;;;;3.60;3.40;;;24.70;99.90;;;;;;5077824;28;21219;-57
2023/08/24 02:19:45;;;;;;;3.60;3.40;;;24.70;99.90;;;;;;5079499;28;20463;-55
2023/08/24 02:22:12;;;;;;;3.87;3.57;;;24.70;99.90;;;;;;5082132;28;20470;-56
2023/08/24 02:24:39;;;;;;;4.03;3.73;;;24.70;99.90;;;;;;5080183;28;21329;-56
2023/08/24 02:27:06;;;;;;;4.10;3.80;;;24.70;99.90;;;;;;5081643;28;20470;-58
2023/08/24 02:29:32;;;;;;;4.43;4.13;;;24.70;99.90;;;;;;5080695;28;20462;-56
2023/08/24 02:31:59;;;;;;;3.93;3.63;;;24.70;99.90;;;;;;5078240;28;20460;-57
2023/08/24 02:34:26;;;;;;;4.17;3.87;;;24.70;99.90;;;;;;5080053;28;21103;-57
2023/08/24 02:36:54;;;;;;;3.60;3.30;;;24.70;99.90;;;;;;5077836;28;21133;-56
2023/08/24 02:39:21;;;;;;;4.00;3.70;;;24.70;99.90;;;;;;5082562;28;20826;-57
2023/08/24 02:41:47;;;;;;;4.03;3.73;;;24.70;99.90;;;;;;5080973;28;20463;-58
2023/08/24 02:44:14;;;;;;;4.20;3.90;;;24.70;99.90;;;;;;5084136;28;20458;-56
2023/08/24 02:46:42;;;;;;;4.77;3.37;;;24.70;99.90;;;;;;5083664;28;20470;-57
2023/08/24 02:49:09;;;;;;;3.20;3.00;;;24.60;99.90;;;;;;5085711;28;22329;-57
2023/08/24 02:51:36;;;;;;;3.97;3.67;;;24.70;99.90;;;;;;5083082;28;20451;-55
2023/08/24 02:54:04;;;;;;;4.30;4.00;;;24.70;99.90;;;;;;5081277;28;20471;-54
2023/08/24 02:56:30;;;;;;;4.17;3.87;;;24.70;99.90;;;;;;5080780;28;20487;-56
2023/08/24 02:58:57;;;;;;;4.37;3.53;;;24.60;99.90;;;;;;5080058;28;20735;-57
2023/08/24 03:01:24;;;;;;;3.53;3.23;;;24.70;99.90;;;;;;5078533;28;20459;-55
2023/08/24 03:03:51;;;;;;;3.97;3.67;;;24.60;99.90;;;;;;5084559;28;20483;-57
2023/08/24 03:06:18;;;;;;;4.40;4.00;;;24.60;99.90;;;;;;5078844;28;21042;-56
2023/08/24 03:08:44;;;;;;;3.40;3.20;;;24.60;99.90;;;;;;5079561;28;20463;-55
2023/08/24 03:11:12;;;;;;;4.23;3.90;;;24.60;99.90;;;;;;5080713;28;21076;-55
2023/08/24 03:13:39;;;;;;;3.80;3.50;;;24.60;99.90;;;;;;5088020;28;20975;-57
2023/08/24 03:16:07;;;;;;;3.40;3.20;;;24.60;99.90;;;;;;5082213;28;20474;-54
2023/08/24 03:18:34;;;;;;;4.80;4.40;;;24.60;99.90;;;;;;5082762;28;20463;-57
2023/08/24 03:21:01;;;;;;;5.13;4.40;;;24.60;99.90;;;;;;5084230;28;20477;-57
2023/08/24 03:23:28;;;;;;;3.10;2.90;;;24.70;99.90;;;;;;5082978;28;20462;-55
2023/08/24 03:25:56;;;;;;;4.90;4.60;;;24.60;99.90;;;;;;5085739;28;20472;-55
2023/08/24 03:28:24;;;;;;;3.90;3.60;;;24.60;99.90;;;;;;5084133;28;20466;-57
2023/08/24 03:30:55;;;;;;;3.83;3.60;;;24.60;99.90;;;;;;5084613;28;20975;-56
2023/08/24 03:33:21;;;;;;;4.10;3.80;;;24.60;99.90;;;;;;5086153;28;20551;-54
2023/08/24 03:35:49;;;;;;;4.57;4.27;;;24.60;99.90;;;;;;5085807;28;20486;-57
2023/08/24 03:38:16;;;;;;;3.60;3.30;;;24.60;99.90;;;;;;5084360;28;20458;-54
2023/08/24 03:40:43;;;;;;;3.60;3.30;;;24.60;99.90;;;;;;5083780;28;20458;-56
2023/08/24 03:43:09;;;;;;;4.37;3.97;;;24.60;99.90;;;;;;5080602;28;20462;-55
2023/08/24 03:45:37;;;;;;;3.80;3.50;;;24.60;99.90;;;;;;5083774;28;20486;-57
2023/08/24 03:48:05;;;;;;;4.20;3.80;;;24.60;99.90;;;;;;5080673;28;20970;-54
2023/08/24 03:50:31;;;;;;;3.97;3.67;;;24.60;99.90;;;;;;5085587;28;20460;-55
2023/08/24 03:52:58;;;;;;;2.93;2.73;;;24.60;99.90;;;;;;5083221;28;20540;-56
2023/08/24 03:55:25;;;;;;;4.07;3.77;;;24.60;99.90;;;;;;5083543;28;20482;-55
2023/08/24 03:57:52;;;;;;;4.00;3.70;;;24.60;99.90;;;;;;5081978;28;20801;-54
2023/08/24 04:00:19;;;;;;;3.87;3.57;;;24.60;99.90;;;;;;5078979;28;20841;-54
2023/08/24 04:02:47;;;;;;;3.30;3.10;;;24.60;99.90;;;;;;5079465;28;20520;-56
2023/08/24 04:05:14;;;;;;;4.50;4.10;;;24.60;99.90;;;;;;5081760;28;20486;-56
2023/08/24 04:07:41;;;;;;;3.40;3.20;;;24.60;99.90;;;;;;5082652;28;20456;-55
2023/08/24 04:10:09;;;;;;;3.90;3.60;;;24.60;99.90;;;;;;5082250;28;20459;-56
2023/08/24 04:12:36;;;;;;;3.87;3.60;;;24.60;99.90;;;;;;5083324;28;20543;-57
2023/08/24 04:15:04;;;;;;;3.50;3.30;;;24.60;99.90;;;;;;5084081;28;20941;-57
2023/08/24 04:17:31;;;;;;;4.20;3.90;;;24.60;99.90;;;;;;5081878;28;21179;-58
2023/08/24 04:19:59;;;;;;;4.03;3.63;;;24.60;99.90;;;;;;5080233;28;20581;-57
2023/08/24 04:22:25;;;;;;;3.43;3.23;;;24.60;99.90;;;;;;5078059;28;21060;-55
2023/08/24 04:24:52;;;;;;;3.37;3.17;;;24.60;99.90;;;;;;5080424;28;20822;-57
2023/08/24 04:27:21;;;;;;;3.17;2.97;;;24.60;99.90;;;;;;5081780;28;20462;-56
2023/08/24 04:29:48;;;;;;;4.00;3.70;;;24.60;99.90;;;;;;5081672;28;21087;-55
2023/08/24 04:32:15;;;;;;;3.63;3.40;;;24.60;99.90;;;;;;5082605;28;20459;-56
2023/08/24 04:34:42;;;;;;;4.10;3.70;;;24.60;99.90;;;;;;5081933;28;20454;-57
2023/08/24 04:37:10;;;;;;;4.20;3.90;;;24.60;99.90;;;;;;5085659;28;20462;-53
2023/08/24 04:39:37;;;;;;;4.00;3.70;;;24.60;99.90;;;;;;5083903;28;20466;-55
2023/08/24 04:42:04;;;;;;;4.20;3.90;;;24.60;99.90;;;;;;5085681;28;20458;-56
2023/08/24 04:44:30;;;;;;;3.77;3.47;;;24.60;99.90;;;;;;5088776;28;20462;-54
2023/08/24 04:46:57;;;;;;;3.60;3.30;;;24.60;99.90;;;;;;5086521;28;20475;-56
2023/08/24 04:49:24;;;;;;;4.27;3.77;;;24.60;99.90;;;;;;5081041;28;20474;-55
2023/08/24 04:51:51;;;;;;;3.10;2.90;;;24.60;99.90;;;;;;5090032;28;20466;-57
2023/08/24 04:54:19;;;;;;;3.50;3.20;;;24.60;99.90;;;;;;5086741;28;20470;-56
2023/08/24 04:56:45;;;;;;;3.57;3.27;;;24.60;99.90;;;;;;5084203;28;21664;-54
2023/08/24 04:59:12;;;;;;;3.80;3.50;;;24.60;99.90;;;;;;5088372;28;20471;-57
2023/08/24 05:01:39;;;;;;;3.40;3.20;;;24.60;99.90;;;;;;5082591;28;20482;-55
2023/08/24 05:04:05;;;;;;;3.43;3.13;;;24.60;99.90;;;;;;5085088;28;20474;-56
2023/08/24 05:06:32;;;;;;;4.87;3.33;;;24.60;99.90;;;;;;5086991;28;20477;-54
2023/08/24 05:08:59;;;;;;;4.00;3.70;;;24.60;99.90;;;;;;5090996;28;20470;-57
2023/08/24 05:11:30;;;;;;;3.67;3.37;;;24.60;99.90;;;;;;5081340;28;20470;-54
2023/08/24 05:13:57;;;;;;;3.60;3.40;;;24.60;99.90;;;;;;5080486;28;20462;-55
2023/08/24 05:16:24;;;;;;;3.33;3.13;;;24.60;99.90;;;;;;5088115;28;20481;-54
2023/08/24 05:18:51;;;;;;;3.80;3.50;;;24.60;99.90;;;;;;5091774;28;20470;-57
2023/08/24 05:21:18;;;;;;;3.40;3.10;;;24.60;99.90;;;;;;5087380;28;20458;-58
2023/08/24 05:23:44;;;;;;;3.30;3.00;;;24.60;99.90;;;;;;5081840;28;20459;-55
2023/08/24 05:26:11;;;;;;;3.20;3.00;;;24.60;99.90;;;;;;5087072;28;20762;-57
2023/08/24 05:28:39;;;;;;;3.23;2.93;;;24.50;99.90;;;;;;5085259;28;20460;-54
2023/08/24 05:31:06;;;;;;;3.07;2.87;;;24.50;99.90;;;;;;5083423;28;20479;-55
2023/08/24 05:33:33;;;;;;;3.83;3.53;;;24.50;99.90;;;;;;5082335;28;20799;-57
2023/08/24 05:36:00;;;;;;;4.00;3.70;;;24.50;99.90;;;;;;5087747;28;20845;-56
2023/08/24 05:38:27;;;;;;;3.00;2.70;;;24.50;99.90;;;;;;5083608;28;20467;-57
2023/08/24 05:40:53;;;;;;;3.33;3.13;;;24.50;99.90;;;;;;5081462;28;20463;-56
2023/08/24 05:43:20;;;;;;;3.70;3.47;;;24.50;99.90;;;;;;5083092;28;21034;-54
2023/08/24 05:45:49;;;;;;;5.27;3.77;;;24.50;99.90;;;;;;5084613;28;20876;-55
2023/08/24 05:48:16;;;;;;;3.10;2.90;;;24.50;99.90;;;;;;5083061;28;20458;-54
2023/08/24 05:50:46;;;;;;;3.30;3.00;;;24.50;99.90;;;;;;5085625;28;20474;-56
2023/08/24 05:53:13;;;;;;;3.80;3.60;;;24.50;99.90;;;;;;5081029;28;20922;-55
2023/08/24 05:55:40;;;;;;;3.80;3.50;;;24.50;99.90;;;;;;5085834;28;20881;-56
2023/08/24 05:58:07;;;;;;;3.60;3.30;;;24.50;99.90;;;;;;5090812;28;20459;-55
2023/08/24 06:00:34;;;;;;;2.70;2.50;;;24.50;99.90;;;;;;5085564;28;20463;-56
2023/08/24 06:03:03;;;;;;;3.60;3.40;;;24.50;99.90;;;;;;5081816;28;20873;-55
2023/08/24 06:05:31;;;;;;;3.60;3.40;;;24.50;99.90;;;;;;5082757;28;20532;-54
2023/08/24 06:07:58;;;;;;;3.70;3.40;;;24.50;99.90;;;;;;5082107;28;20466;-56
2023/08/24 06:10:26;;;;;;;3.03;2.83;;;24.50;99.90;;;;;;5082431;28;20482;-54
2023/08/24 06:12:53;;;;;;;3.70;3.40;;;24.50;99.90;;;;;;5085918;28;20458;-57
2023/08/24 06:15:23;;;;;;;4.37;4.07;;;24.50;99.90;;;;;;5080600;28;20463;-56
2023/08/24 06:17:50;;;;;;;3.27;3.07;;;24.50;99.90;;;;;;5084026;28;20849;-56
2023/08/24 06:20:18;;;;;;;2.73;2.53;;;24.50;99.90;;;;;;5082687;28;20471;-55
2023/08/24 06:22:45;;;;;;;4.23;3.27;;;24.50;99.90;;;;;;5079913;28;20451;-54
2023/08/24 06:25:12;;;;;;;3.37;3.17;;;24.50;99.90;;;;;;5081971;28;20463;-55
2023/08/24 06:27:39;;;;;;;3.57;3.27;;;24.50;99.90;;;;;;5085227;28;20477;-56
2023/08/24 06:30:07;;;;;;;3.13;2.93;;;24.50;99.90;;;;;;5081695;28;20948;-56
2023/08/24 06:32:33;;;;;;;3.53;3.33;;;24.50;99.90;;;;;;5080493;28;20459;-57
2023/08/24 06:35:00;;;;;;;6.13;3.20;;;24.50;99.90;;;;;;5083703;28;20478;-52
2023/08/24 06:37:28;;;;;;;3.30;3.00;;;24.50;99.90;;;;;;5088072;28;21250;-54
2023/08/24 06:39:55;;;;;;;3.37;3.17;;;24.50;99.90;;;;;;5089608;28;20470;-52
2023/08/24 06:42:22;;;;;;;3.67;3.37;;;24.50;99.90;;;;;;5089672;28;20470;-54
2023/08/24 06:44:50;;;;;;;3.57;3.27;;;24.50;99.90;;;;;;5086145;28;20988;-56
2023/08/24 06:47:17;;;;;;;3.63;3.33;;;24.50;99.90;;;;;;5082165;28;20471;-51
2023/08/24 06:49:44;;;;;;;3.93;3.00;;;24.50;99.90;;;;;;5087274;28;22962;-52
2023/08/24 06:52:10;;;;;;;3.90;3.60;;;24.50;99.90;;;;;;5080035;28;20928;-51
2023/08/24 06:54:38;;;;;;;3.80;3.50;;;24.50;99.90;;;;;;5080330;28;20467;-56
2023/08/24 06:57:05;;;;;;;3.10;2.90;;;24.50;99.90;;;;;;5085639;28;20476;-54
2023/08/24 06:59:32;;;;;;;3.80;3.50;;;24.50;99.90;;;;;;5087540;28;20818;-54
2023/08/24 07:01:59;;;;;;;3.27;3.00;;;24.50;99.90;;;;;;5083909;27;20480;-53
2023/08/24 07:04:26;;;;;;;3.90;3.60;;;24.50;99.90;;;;;;5086368;28;20466;-54
2023/08/24 07:06:53;;;;;;;3.10;2.90;;;24.50;99.90;;;;;;5087909;28;20462;-54
2023/08/24 07:09:20;;;;;;;2.90;2.70;;;24.60;99.90;;;;;;5085742;28;20460;-56
2023/08/24 07:11:48;;;;;;;3.83;3.53;;;24.60;99.90;;;;;;5085601;28;20486;-56
2023/08/24 07:14:15;;;;;;;3.50;3.30;;;24.60;99.90;;;;;;5090914;28;20447;-55
2023/08/24 07:16:42;;;;;;;3.93;3.63;;;24.60;99.90;;;;;;5083259;27;20489;-54
2023/08/24 07:19:09;;;;;;;3.47;3.27;;;24.60;99.90;;;;;;5086771;28;20854;-52
2023/08/24 07:21:36;;;;;;;3.17;2.97;;;24.60;99.90;;;;;;5085590;28;20544;-56
2023/08/24 07:24:03;;;;;;;3.73;3.43;;;24.60;99.90;;;;;;5086312;28;20474;-53
2023/08/24 07:26:30;;;;;;;3.30;3.00;;;24.60;99.90;;;;;;5087358;28;20834;-55
2023/08/24 07:28:58;;;;;;;3.20;3.00;;;24.60;99.90;;;;;;5089045;28;20463;-53
2023/08/24 07:31:25;;;;;;;4.67;4.37;;;24.60;99.90;;;;;;5081969;28;20450;-54
2023/08/24 07:33:52;;;;;;;3.13;2.93;;;24.60;99.90;;;;;;5083867;28;20958;-54
2023/08/24 07:36:19;;;;;;;3.23;2.93;;;24.60;99.90;;;;;;5079207;28;20475;-56
2023/08/24 07:38:46;;;;;;;4.07;3.67;;;24.60;99.90;;;;;;5080783;28;20493;-55
2023/08/24 07:41:13;;;;;;;3.50;3.30;;;24.60;99.90;;;;;;5083837;28;20516;-52
2023/08/24 07:43:40;;;;;;;7.83;6.30;;;24.60;99.90;;;;;;5080813;28;20456;-56
2023/08/24 07:46:08;;;;;;;6.70;6.10;;;24.60;99.90;;;;;;5084188;28;20504;-52
2023/08/24 07:48:35;;;;;;;7.70;7.07;;;24.60;99.90;;;;;;5085270;28;20491;-53
2023/08/24 07:51:02;;;;;;;7.97;7.20;;;24.60;99.90;;;;;;5084486;28;20454;-56
2023/08/24 07:53:29;;;;;;;8.63;6.60;;;24.60;99.90;;;;;;5084779;28;20463;-54
2023/08/24 07:55:57;;;;;;;7.90;6.00;;;24.60;99.90;;;;;;5083092;28;20462;-53
2023/08/24 07:58:24;;;;;;;6.10;5.60;;;24.60;99.90;;;;;;5084823;28;20451;-53
2023/08/24 08:00:51;;;;;;;7.20;6.60;;;24.60;99.90;;;;;;5086797;28;20466;-54
2023/08/24 08:03:19;;;;;;;7.10;6.40;;;24.60;99.90;;;;;;5079200;28;20912;-52
2023/08/24 08:05:49;;;;;;;6.80;6.10;;;24.60;99.90;;;;;;5087229;28;20962;-56
2023/08/24 08:08:16;;;;;;;7.87;7.27;;;24.60;99.90;;;;;;5080788;28;20467;-52
2023/08/24 08:10:43;;;;;;;10.57;6.87;;;24.50;99.90;;;;;;5080827;28;20450;-55
2023/08/24 08:13:11;;;;;;;8.57;6.53;;;24.50;99.90;;;;;;5083338;28;20961;-55
2023/08/24 08:15:38;;;;;;;13.13;7.43;;;24.50;99.90;;;;;;5081825;28;20520;-53
2023/08/24 08:18:05;;;;;;;12.07;7.80;;;24.60;99.90;;;;;;5086790;28;20574;-54
2023/08/24 08:20:33;;;;;;;8.73;6.80;;;24.50;99.90;;;;;;5087900;28;20462;-52
2023/08/24 08:23:00;;;;;;;7.57;6.37;;;24.50;99.90;;;;;;5083197;28;20464;-56
2023/08/24 08:25:28;;;;;;;6.93;6.37;;;24.50;99.90;;;;;;5084878;28;20545;-54
2023/08/24 08:27:54;;;;;;;11.00;7.20;;;24.50;99.90;;;;;;5082262;28;20463;-54
2023/08/24 08:30:21;;;;;;;11.63;6.97;;;24.50;99.90;;;;;;5091484;28;20462;-54
2023/08/24 08:32:48;;;;;;;7.47;6.37;;;24.50;99.90;;;;;;5085112;28;20456;-54
2023/08/24 08:35:15;;;;;;;8.07;6.10;;;24.50;99.90;;;;;;5086136;28;20471;-55
2023/08/24 08:37:43;;;;;;;5.43;4.93;;;24.50;99.90;;;;;;5089858;28;20795;-51
2023/08/24 08:40:12;;;;;;;7.70;6.20;;;24.50;99.90;;;;;;5088702;28;20473;-52
2023/08/24 08:42:39;;;;;;;7.33;5.17;;;24.50;99.90;;;;;;5082305;27;20461;-53
2023/08/24 08:45:10;;;;;;;7.40;5.40;;;24.50;99.90;;;;;;5082518;28;20894;-52
2023/08/24 08:47:37;;;;;;;7.83;5.67;;;24.50;99.90;;;;;;5084961;27;20474;-53
2023/08/24 08:50:05;;;;;;;8.10;6.47;;;24.50;99.90;;;;;;5088274;28;20452;-56
2023/08/24 08:52:33;;;;;;;7.37;4.70;;;24.50;99.90;;;;;;5087168;27;20483;-49
2023/08/24 08:55:06;;;;;;;5.47;4.97;;;24.50;99.90;;;;;;5086683;28;20462;-52
2023/08/24 08:57:34;;;;;;;6.53;4.97;;;24.50;99.90;;;;;;5086409;28;20572;-51
2023/08/24 09:00:00;;;;;;;5.60;4.80;;;24.50;99.90;;;;;;5086411;28;20466;-53
2023/08/24 09:02:29;;;;;;;5.50;5.00;;;24.50;99.90;;;;;;5084736;28;20471;-52
2023/08/24 09:04:57;;;;;;;5.90;5.30;;;24.50;99.90;;;;;;5085554;27;20502;-55
2023/08/24 09:07:24;;;;;;;6.57;4.90;;;24.60;99.90;;;;;;5081626;28;20959;-53
2023/08/24 09:09:51;;;;;;;5.67;4.70;;;24.60;99.90;;;;;;5085312;28;20538;-48
2023/08/24 09:12:19;;;;;;;5.87;5.37;;;24.60;99.90;;;;;;5079906;28;20456;-48
2023/08/24 09:14:46;;;;;;;5.10;4.60;;;24.50;99.90;;;;;;5083339;28;20452;-52
2023/08/24 09:17:20;;;;;;;5.40;4.93;;;24.60;99.90;;;;;;5078326;28;20477;-49
2023/08/24 09:19:50;;;;;;;7.30;4.87;;;24.60;99.90;;;;;;5086007;28;20778;-56
2023/08/24 09:22:16;;;;;;;5.27;4.77;;;24.60;99.90;;;;;;5084029;28;20454;-52
2023/08/24 09:24:44;;;;;;;6.47;4.97;;;24.60;99.90;;;;;;5086888;28;20460;-53
2023/08/24 09:27:16;;;;;;;8.27;5.30;;;24.60;99.90;;;;;;5086376;28;20505;-51
2023/08/24 09:29:49;;;;;;;9.03;5.57;;;24.60;99.90;;;;;;5086409;28;20503;-53
2023/08/24 09:32:15;;;;;;;4.07;3.77;;;24.60;99.90;;;;;;5084652;28;20508;-51
2023/08/24 09:34:43;;;;;;;4.93;4.40;;;24.60;99.90;;;;;;5082559;28;20483;-52
2023/08/24 09:37:14;;;;;;;5.30;4.30;;;24.60;99.90;;;;;;5085307;28;20877;-53
2023/08/24 09:39:40;;;;;;;5.33;4.83;;;24.60;99.90;;;;;;5083959;28;20451;-49
2023/08/24 09:42:07;;;;;;;7.20;5.13;;;24.60;99.90;;;;;;5085985;28;20462;-54
2023/08/24 09:44:34;;;;;;;5.43;4.80;;;24.60;99.90;;;;;;5086118;28;20470;-50
2023/08/24 09:47:02;;;;;;;4.70;4.30;;;24.60;99.90;;;;;;5080067;28;21053;-51
2023/08/24 09:49:29;;;;;;;4.30;3.97;;;24.60;99.90;;;;;;5083210;28;21090;-49
2023/08/24 09:51:58;;;;;;;5.70;5.20;;;24.60;99.90;;;;;;5082902;28;20443;-49
2023/08/24 09:54:28;;;;;;;6.40;4.77;;;24.60;99.90;;;;;;5083322;28;20486;-54
2023/08/24 09:56:56;;;;;;;4.77;4.33;;;24.60;99.90;;;;;;5085897;28;20487;-53
2023/08/24 09:59:24;;;;;;;4.83;4.53;;;24.60;99.90;;;;;;5083515;28;20511;-50
2023/08/24 10:01:54;;;;;;;5.90;5.47;;;24.60;99.90;;;;;;5086732;28;20864;-54
2023/08/24 10:04:24;;;;;;;8.60;5.10;;;24.60;99.90;;;;;;5089707;28;20463;-50
2023/08/24 10:06:55;;;;;;;5.30;4.90;;;24.60;99.90;;;;;;5081702;27;20466;-52
2023/08/24 10:09:26;;;;;;;5.33;4.83;;;24.60;99.90;;;;;;5083279;28;20462;-52
2023/08/24 10:11:57;;;;;;;5.10;4.70;;;24.60;99.90;;;;;;5083821;28;20463;-52
2023/08/24 10:14:30;;;;;;;5.13;4.53;;;24.60;99.90;;;;;;5083220;28;20508;-49
2023/08/24 10:16:57;;;;;;;7.17;4.80;;;24.60;99.90;;;;;;5083898;28;21075;-51
2023/08/24 10:19:27;;;;;;;4.37;3.60;;;24.60;99.90;;;;;;5082484;28;20455;-55
2023/08/24 10:21:57;;;;;;;4.20;3.80;;;24.60;99.90;;;;;;5080272;28;21060;-51
2023/08/24 10:24:24;;;;;;;5.00;3.97;;;24.60;99.90;;;;;;5086995;28;20460;-53
2023/08/24 10:26:52;;;;;;;4.67;4.27;;;24.60;99.90;;;;;;5083743;28;20462;-50
2023/08/24 10:29:20;;;;;;;5.67;5.20;;;24.60;99.90;;;;;;5080168;28;20773;-56
2023/08/24 10:31:47;;;;;;;5.07;4.57;;;24.60;99.90;;;;;;5084314;28;20463;-59
2023/08/24 10:34:13;;;;;;;5.10;4.70;;;24.60;99.90;;;;;;5082379;28;20459;-58
2023/08/24 10:36:42;;;;;;;5.10;4.70;;;24.60;99.90;;;;;;5081621;28;20460;-61
2023/08/24 10:39:10;;;;;;;5.30;4.90;;;24.60;99.90;;;;;;5083602;28;20975;-61
2023/08/24 10:41:52;;;;;;;5.73;4.30;;;24.60;99.90;;;;;;5082181;28;20507;-64
2023/08/24 10:44:23;;;;;;;4.30;3.90;;;24.60;99.90;;;;;;5079910;28;20458;-61
2023/08/24 10:47:12;;;;;;;6.20;4.37;;;24.60;99.90;;;;;;5082233;28;20463;-61
2023/08/24 10:49:39;;;;;;;5.90;4.17;;;24.60;99.90;;;;;;5086161;28;20681;-66
2023/08/24 10:52:21;;;;;;;4.50;4.10;;;24.60;99.90;;;;;;5086889;28;20981;-63
2023/08/24 10:54:49;;;;;;;6.50;4.20;;;24.60;99.90;;;;;;5084199;28;20460;-63
2023/08/24 10:57:21;;;;;;;4.90;4.40;;;24.70;99.90;;;;;;5088738;27;20487;-68
2023/08/24 11:00:00;;;;;;;5.53;4.20;;;24.70;99.90;;;;;;5087368;28;20456;-77
2023/08/24 11:02:27;;;;;;;13.27;4.70;;;24.70;99.90;;;;;;5083193;28;21320;-73
2023/08/24 11:05:05;;;;;;;20.50;4.50;;;24.70;99.90;;;;;;5085573;28;20464;-69
2023/08/24 11:07:33;;;;;;;4.93;4.13;;;24.70;99.90;;;;;;5086310;28;20455;-68
2023/08/24 11:10:11;;;;;;;5.13;4.63;;;24.70;99.90;;;;;;5083869;28;20466;-71
2023/08/24 11:13:05;;;;;;;5.30;4.40;;;24.80;99.90;;;;;;5083057;28;23438;-66
2023/08/24 11:15:32;;;;;;;4.67;4.27;;;24.80;99.90;;;;;;5080260;28;20455;-66
2023/08/24 11:18:22;;;;;;;6.10;4.43;;;24.80;99.90;;;;;;5081668;28;20485;-63
2023/08/24 11:20:51;;;;;;;6.90;4.10;;;24.80;99.90;;;;;;5082779;28;20458;-63
2023/08/24 11:23:20;;;;;;;6.80;4.10;;;24.80;99.90;;;;;;5089131;28;20451;-65
2023/08/24 11:25:48;;;;;;;4.70;4.30;;;24.80;99.90;;;;;;5088135;28;20451;-65
2023/08/24 11:28:19;;;;;;;4.63;4.13;;;24.80;99.90;;;;;;5090099;28;20462;-66
2023/08/24 11:30:46;;;;;;;4.90;4.40;;;24.80;99.90;;;;;;5087504;28;20455;-62
2023/08/24 11:33:13;;;;;;;4.20;3.80;;;24.90;99.90;;;;;;5088925;28;20459;-68
2023/08/24 11:35:41;;;;;;;6.53;4.37;;;24.90;99.90;;;;;;5092576;28;20459;-68
2023/08/24 11:38:07;;;;;;;3.73;3.43;;;24.90;99.90;;;;;;5089271;28;20808;-64
2023/08/24 11:40:35;;;;;;;8.03;4.23;;;24.90;99.90;;;;;;5092321;28;20459;-67
2023/08/24 11:43:02;;;;;;;5.13;4.10;;;24.90;99.90;;;;;;5090344;28;20511;-62
2023/08/24 11:45:33;;;;;;;4.27;3.93;;;24.90;99.90;;;;;;5090488;28;20818;-64
2023/08/24 11:48:01;;;;;;;4.80;4.17;;;25.00;99.90;;;;;;5090504;28;20540;-64
2023/08/24 11:50:28;;;;;;;5.20;4.33;;;25.00;99.90;;;;;;5089942;28;21084;-65
2023/08/24 11:52:55;;;;;;;7.40;3.70;;;25.00;99.90;;;;;;5086787;28;20799;-68
2023/08/24 11:55:22;;;;;;;4.40;3.87;;;25.00;99.90;;;;;;5091338;28;20457;-65
2023/08/24 11:57:51;;;;;;;3.97;3.67;;;25.00;99.90;;;;;;5094459;28;20467;-68
2023/08/24 12:00:20;;;;;;;3.23;3.00;;;25.00;99.90;;;;;;5095224;28;20492;-68
2023/08/24 12:02:46;;;;;;;4.60;3.97;;;25.00;99.90;;;;;;5092436;27;20472;-69
2023/08/24 12:05:23;;;;;;;3.23;3.03;;;25.00;99.90;;;;;;5098390;28;20450;-63
2023/08/24 12:07:53;;;;;;;5.20;4.20;;;25.00;99.90;;;;;;5098226;28;20481;-71
2023/08/24 12:10:20;;;;;;;8.63;3.90;;;25.10;99.90;;;;;;5095660;28;21255;-69
2023/08/24 12:12:47;;;;;;;6.50;3.90;;;25.10;99.90;;;;;;5094546;28;20455;-68
2023/08/24 12:15:20;;;;;;;8.00;4.07;;;25.10;99.90;;;;;;5089911;28;20460;-64
2023/08/24 12:17:48;;;;;;;4.10;3.70;;;25.10;99.90;;;;;;5088194;28;20467;-71
2023/08/24 12:20:20;;;;;;;3.90;3.60;;;25.10;99.90;;;;;;5088454;28;20515;-72
2023/08/24 12:22:54;;;;;;;4.07;3.67;;;25.10;99.90;;;;;;5087980;28;20532;-66
2023/08/24 12:25:24;;;;;;;3.93;3.60;;;25.10;99.90;;;;;;5091472;28;20946;-70
2023/08/24 12:27:52;;;;;;;4.63;4.03;;;25.10;99.90;;;;;;5090088;28;20472;-70
2023/08/24 12:30:21;;;;;;;4.47;4.07;;;25.10;99.90;;;;;;5087861;27;20508;-63
2023/08/24 12:32:50;;;;;;;3.87;3.57;;;25.10;99.90;;;;;;5097347;28;20462;-73
2023/08/24 12:35:17;;;;;;;3.90;3.60;;;25.10;99.90;;;;;;5088364;28;20452;-74
2023/08/24 12:37:44;;;;;;;4.30;3.90;;;25.20;99.90;;;;;;5094473;28;20483;-73
2023/08/24 12:40:11;;;;;;;5.20;3.87;;;25.20;99.90;;;;;;5096245;28;20507;-70
2023/08/24 12:42:39;;;;;;;3.50;3.20;;;25.20;99.90;;;;;;5097074;28;21624;-67
2023/08/24 12:45:07;;;;;;;5.70;3.57;;;25.20;99.90;;;;;;5095309;28;20461;-63
2023/08/24 12:47:37;;;;;;;4.37;4.07;;;25.20;99.90;;;;;;5093590;27;20460;-68
2023/08/24 12:50:06;;;;;;;5.17;4.10;;;25.20;99.90;;;;;;5089930;28;20451;-63